sensor_id;sensor_type;location;lat;lon;timestamp;P1;durP1;ratioP1;P2;durP2;ratioP2
28074;SDS011;15385;51.088;6.572;2023-05-10T00:00:01;15.40;;;11.00;;
28074;SDS011;15385;51.088;6.572;2023-05-10T00:02:34;15.48;;;12.00;;
28074;SDS011;15385;51.088;6.572;2023-05-10T00:05:05;12.25;;;10.23;;
28074;SDS011;15385;51.088;6.572;2023-05-10T00:07:36;11.48;;;9.32;;
28074;SDS011;15385;51.088;6.572;2023-05-10T00:10:07;14.90;;;11.40;;
28074;SDS011;15385;51.088;6.572;2023-05-10T00:12:38;13.90;;;10.65;;
28074;SDS011;15385;51.088;6.572;2023-05-10T00:15:09;16.50;;;11.35;;
28074;SDS011;15385;51.088;6.572;2023-05-10T00:17:40;13.27;;;10.10;;
28074;SDS011;15385;51.088;6.572;2023-05-10T00:20:11;15.38;;;10.73;;
28074;SDS011;15385;51.088;6.572;2023-05-10T00:22:41;13.35;;;9.80;;
28074;SDS011;15385;51.088;6.572;2023-05-10T00:25:12;11.35;;;8.55;;
28074;SDS011;15385;51.088;6.572;2023-05-10T00:27:43;8.80;;;7.40;;
28074;SDS011;15385;51.088;6.572;2023-05-10T00:30:13;9.55;;;7.03;;
28074;SDS011;15385;51.088;6.572;2023-05-10T00:32:44;8.85;;;6.32;;
28074;SDS011;15385;51.088;6.572;2023-05-10T00:35:15;7.90;;;5.50;;
28074;SDS011;15385;51.088;6.572;2023-05-10T00:37:46;5.85;;;5.13;;
28074;SDS011;15385;51.088;6.572;2023-05-10T00:40:16;6.32;;;5.20;;
28074;SDS011;15385;51.088;6.572;2023-05-10T00:42:47;5.38;;;4.68;;
28074;SDS011;15385;51.088;6.572;2023-05-10T00:45:17;6.93;;;5.13;;
28074;SDS011;15385;51.088;6.572;2023-05-10T00:47:49;5.00;;;4.45;;
28074;SDS011;15385;51.088;6.572;2023-05-10T00:50:20;6.15;;;4.00;;
28074;SDS011;15385;51.088;6.572;2023-05-10T00:52:51;5.32;;;3.97;;
28074;SDS011;15385;51.088;6.572;2023-05-10T00:55:22;5.97;;;3.90;;
28074;SDS011;15385;51.088;6.572;2023-05-10T00:57:53;6.78;;;4.60;;
28074;SDS011;15385;51.088;6.572;2023-05-10T01:00:24;5.68;;;4.38;;
28074;SDS011;15385;51.088;6.572;2023-05-10T01:02:55;5.68;;;4.53;;
28074;SDS011;15385;51.088;6.572;2023-05-10T01:05:26;4.93;;;4.03;;
28074;SDS011;15385;51.088;6.572;2023-05-10T01:07:57;5.70;;;4.32;;
28074;SDS011;15385;51.088;6.572;2023-05-10T01:10:27;6.03;;;4.15;;
28074;SDS011;15385;51.088;6.572;2023-05-10T01:12:59;5.50;;;3.85;;
28074;SDS011;15385;51.088;6.572;2023-05-10T01:15:30;6.65;;;4.88;;
28074;SDS011;15385;51.088;6.572;2023-05-10T01:18:01;5.53;;;4.18;;
28074;SDS011;15385;51.088;6.572;2023-05-10T01:20:36;5.18;;;4.60;;
28074;SDS011;15385;51.088;6.572;2023-05-10T01:29:18;6.85;;;4.20;;
28074;SDS011;15385;51.088;6.572;2023-05-10T01:38:01;6.40;;;4.57;;
28074;SDS011;15385;51.088;6.572;2023-05-10T01:40:47;6.00;;;4.70;;
28074;SDS011;15385;51.088;6.572;2023-05-10T01:43:34;6.35;;;4.93;;
28074;SDS011;15385;51.088;6.572;2023-05-10T01:46:32;6.97;;;5.10;;
28074;SDS011;15385;51.088;6.572;2023-05-10T01:52:19;8.60;;;5.88;;
28074;SDS011;15385;51.088;6.572;2023-05-10T01:55:04;7.38;;;6.05;;
28074;SDS011;15385;51.088;6.572;2023-05-10T01:57:37;9.13;;;6.22;;
28074;SDS011;15385;51.088;6.572;2023-05-10T02:00:11;7.40;;;5.90;;
28074;SDS011;15385;51.088;6.572;2023-05-10T02:02:47;6.97;;;5.43;;
28074;SDS011;15385;51.088;6.572;2023-05-10T02:05:18;7.50;;;6.15;;
28074;SDS011;15385;51.088;6.572;2023-05-10T02:07:51;11.07;;;7.30;;
28074;SDS011;15385;51.088;6.572;2023-05-10T02:10:22;10.57;;;6.78;;
28074;SDS011;15385;51.088;6.572;2023-05-10T02:12:53;9.57;;;7.20;;
28074;SDS011;15385;51.088;6.572;2023-05-10T02:15:25;9.63;;;7.20;;
28074;SDS011;15385;51.088;6.572;2023-05-10T02:17:57;11.57;;;8.75;;
28074;SDS011;15385;51.088;6.572;2023-05-10T02:20:29;12.80;;;7.68;;
28074;SDS011;15385;51.088;6.572;2023-05-10T02:23:02;14.05;;;8.07;;
28074;SDS011;15385;51.088;6.572;2023-05-10T02:25:34;12.73;;;9.23;;
28074;SDS011;15385;51.088;6.572;2023-05-10T02:28:06;13.57;;;9.15;;
28074;SDS011;15385;51.088;6.572;2023-05-10T02:30:38;10.43;;;7.25;;
28074;SDS011;15385;51.088;6.572;2023-05-10T02:33:09;11.07;;;8.48;;
28074;SDS011;15385;51.088;6.572;2023-05-10T02:35:41;15.25;;;8.75;;
28074;SDS011;15385;51.088;6.572;2023-05-10T02:38:12;13.27;;;9.13;;
28074;SDS011;15385;51.088;6.572;2023-05-10T02:40:44;10.20;;;7.25;;
28074;SDS011;15385;51.088;6.572;2023-05-10T02:43:17;12.88;;;8.95;;
28074;SDS011;15385;51.088;6.572;2023-05-10T02:45:48;11.77;;;9.10;;
28074;SDS011;15385;51.088;6.572;2023-05-10T02:48:19;12.38;;;7.75;;
28074;SDS011;15385;51.088;6.572;2023-05-10T02:50:50;9.32;;;7.57;;
28074;SDS011;15385;51.088;6.572;2023-05-10T02:53:28;9.95;;;7.22;;
28074;SDS011;15385;51.088;6.572;2023-05-10T02:56:04;11.48;;;8.30;;
28074;SDS011;15385;51.088;6.572;2023-05-10T02:58:38;11.70;;;7.93;;
28074;SDS011;15385;51.088;6.572;2023-05-10T03:01:09;10.43;;;8.05;;
28074;SDS011;15385;51.088;6.572;2023-05-10T03:03:40;12.75;;;9.13;;
28074;SDS011;15385;51.088;6.572;2023-05-10T03:06:10;11.25;;;8.63;;
28074;SDS011;15385;51.088;6.572;2023-05-10T03:08:41;13.25;;;9.10;;
28074;SDS011;15385;51.088;6.572;2023-05-10T03:16:47;16.98;;;11.05;;
28074;SDS011;15385;51.088;6.572;2023-05-10T03:19:27;14.40;;;10.00;;
28074;SDS011;15385;51.088;6.572;2023-05-10T03:22:04;12.63;;;8.68;;
28074;SDS011;15385;51.088;6.572;2023-05-10T03:24:39;16.38;;;9.93;;
28074;SDS011;15385;51.088;6.572;2023-05-10T03:27:12;17.50;;;11.48;;
28074;SDS011;15385;51.088;6.572;2023-05-10T03:29:44;19.15;;;12.73;;
28074;SDS011;15385;51.088;6.572;2023-05-10T03:32:18;24.25;;;14.20;;
28074;SDS011;15385;51.088;6.572;2023-05-10T03:34:53;24.80;;;14.63;;
28074;SDS011;15385;51.088;6.572;2023-05-10T03:37:24;15.43;;;10.63;;
28074;SDS011;15385;51.088;6.572;2023-05-10T03:39:54;17.65;;;12.23;;
28074;SDS011;15385;51.088;6.572;2023-05-10T03:42:25;20.30;;;13.75;;
28074;SDS011;15385;51.088;6.572;2023-05-10T03:44:55;19.20;;;11.95;;
28074;SDS011;15385;51.088;6.572;2023-05-10T03:47:26;21.33;;;13.88;;
28074;SDS011;15385;51.088;6.572;2023-05-10T03:49:57;22.40;;;14.07;;
28074;SDS011;15385;51.088;6.572;2023-05-10T03:52:27;23.25;;;14.02;;
28074;SDS011;15385;51.088;6.572;2023-05-10T03:54:58;21.60;;;14.77;;
28074;SDS011;15385;51.088;6.572;2023-05-10T03:57:28;20.00;;;12.88;;
28074;SDS011;15385;51.088;6.572;2023-05-10T03:59:59;23.70;;;14.07;;
28074;SDS011;15385;51.088;6.572;2023-05-10T04:02:30;24.33;;;14.40;;
28074;SDS011;15385;51.088;6.572;2023-05-10T04:05:01;19.48;;;12.63;;
28074;SDS011;15385;51.088;6.572;2023-05-10T04:07:32;16.65;;;12.23;;
28074;SDS011;15385;51.088;6.572;2023-05-10T04:10:03;16.52;;;12.25;;
28074;SDS011;15385;51.088;6.572;2023-05-10T04:12:33;13.82;;;11.00;;
28074;SDS011;15385;51.088;6.572;2023-05-10T04:15:04;14.43;;;9.93;;
28074;SDS011;15385;51.088;6.572;2023-05-10T04:17:36;14.63;;;10.77;;
28074;SDS011;15385;51.088;6.572;2023-05-10T04:20:07;17.20;;;10.40;;
28074;SDS011;15385;51.088;6.572;2023-05-10T04:22:38;16.35;;;10.57;;
28074;SDS011;15385;51.088;6.572;2023-05-10T04:25:09;13.52;;;9.93;;
28074;SDS011;15385;51.088;6.572;2023-05-10T04:27:39;14.23;;;9.93;;
28074;SDS011;15385;51.088;6.572;2023-05-10T04:30:10;13.55;;;10.07;;
28074;SDS011;15385;51.088;6.572;2023-05-10T04:32:41;16.17;;;9.75;;
28074;SDS011;15385;51.088;6.572;2023-05-10T04:35:11;14.05;;;9.80;;
28074;SDS011;15385;51.088;6.572;2023-05-10T04:37:44;14.50;;;9.27;;
28074;SDS011;15385;51.088;6.572;2023-05-10T04:40:15;14.02;;;8.70;;
28074;SDS011;15385;51.088;6.572;2023-05-10T04:42:45;15.30;;;8.75;;
28074;SDS011;15385;51.088;6.572;2023-05-10T04:45:16;13.27;;;9.23;;
28074;SDS011;15385;51.088;6.572;2023-05-10T04:47:47;13.10;;;9.40;;
28074;SDS011;15385;51.088;6.572;2023-05-10T04:50:17;13.48;;;8.55;;
28074;SDS011;15385;51.088;6.572;2023-05-10T04:52:48;13.15;;;8.68;;
28074;SDS011;15385;51.088;6.572;2023-05-10T04:55:18;16.67;;;9.18;;
28074;SDS011;15385;51.088;6.572;2023-05-10T04:57:49;13.13;;;8.15;;
28074;SDS011;15385;51.088;6.572;2023-05-10T05:00:20;14.13;;;9.13;;
28074;SDS011;15385;51.088;6.572;2023-05-10T05:02:50;14.18;;;9.75;;
28074;SDS011;15385;51.088;6.572;2023-05-10T05:05:24;12.82;;;9.55;;
28074;SDS011;15385;51.088;6.572;2023-05-10T05:07:55;16.30;;;10.27;;
28074;SDS011;15385;51.088;6.572;2023-05-10T05:10:26;19.05;;;10.45;;
28074;SDS011;15385;51.088;6.572;2023-05-10T05:12:56;26.13;;;11.38;;
28074;SDS011;15385;51.088;6.572;2023-05-10T05:15:27;21.17;;;11.43;;
28074;SDS011;15385;51.088;6.572;2023-05-10T05:17:57;22.17;;;9.40;;
28074;SDS011;15385;51.088;6.572;2023-05-10T05:20:28;15.32;;;10.60;;
28074;SDS011;15385;51.088;6.572;2023-05-10T05:23:03;21.98;;;11.50;;
28074;SDS011;15385;51.088;6.572;2023-05-10T05:25:33;18.98;;;11.52;;
28074;SDS011;15385;51.088;6.572;2023-05-10T05:28:04;19.10;;;11.38;;
28074;SDS011;15385;51.088;6.572;2023-05-10T05:30:34;24.73;;;12.48;;
28074;SDS011;15385;51.088;6.572;2023-05-10T05:33:05;20.25;;;12.18;;
28074;SDS011;15385;51.088;6.572;2023-05-10T05:35:36;23.77;;;14.10;;
28074;SDS011;15385;51.088;6.572;2023-05-10T05:38:06;25.48;;;13.73;;
28074;SDS011;15385;51.088;6.572;2023-05-10T05:40:37;24.55;;;13.70;;
28074;SDS011;15385;51.088;6.572;2023-05-10T05:43:07;19.23;;;12.55;;
28074;SDS011;15385;51.088;6.572;2023-05-10T05:45:38;23.90;;;13.30;;
28074;SDS011;15385;51.088;6.572;2023-05-10T05:48:09;23.85;;;13.80;;
28074;SDS011;15385;51.088;6.572;2023-05-10T05:50:39;21.17;;;12.60;;
28074;SDS011;15385;51.088;6.572;2023-05-10T05:53:10;20.58;;;13.27;;
28074;SDS011;15385;51.088;6.572;2023-05-10T05:55:40;27.88;;;14.90;;
28074;SDS011;15385;51.088;6.572;2023-05-10T05:58:21;28.75;;;15.20;;
28074;SDS011;15385;51.088;6.572;2023-05-10T06:00:52;27.42;;;14.35;;
28074;SDS011;15385;51.088;6.572;2023-05-10T06:03:23;30.00;;;15.32;;
28074;SDS011;15385;51.088;6.572;2023-05-10T06:05:53;24.85;;;14.57;;
28074;SDS011;15385;51.088;6.572;2023-05-10T06:08:24;22.40;;;12.50;;
28074;SDS011;15385;51.088;6.572;2023-05-10T06:10:55;29.38;;;16.23;;
28074;SDS011;15385;51.088;6.572;2023-05-10T06:13:26;27.73;;;15.48;;
28074;SDS011;15385;51.088;6.572;2023-05-10T06:16:02;22.67;;;13.68;;
28074;SDS011;15385;51.088;6.572;2023-05-10T06:18:33;20.40;;;12.32;;
28074;SDS011;15385;51.088;6.572;2023-05-10T06:21:03;25.67;;;14.88;;
28074;SDS011;15385;51.088;6.572;2023-05-10T06:23:34;20.88;;;12.05;;
28074;SDS011;15385;51.088;6.572;2023-05-10T06:26:05;28.63;;;14.68;;
28074;SDS011;15385;51.088;6.572;2023-05-10T06:28:36;21.98;;;12.50;;
28074;SDS011;15385;51.088;6.572;2023-05-10T06:31:11;24.85;;;13.45;;
28074;SDS011;15385;51.088;6.572;2023-05-10T06:33:42;19.35;;;11.40;;
28074;SDS011;15385;51.088;6.572;2023-05-10T06:36:12;20.27;;;11.93;;
28074;SDS011;15385;51.088;6.572;2023-05-10T06:38:43;18.85;;;11.75;;
28074;SDS011;15385;51.088;6.572;2023-05-10T06:41:14;22.05;;;11.70;;
28074;SDS011;15385;51.088;6.572;2023-05-10T06:43:44;20.83;;;12.93;;
28074;SDS011;15385;51.088;6.572;2023-05-10T06:46:15;20.77;;;11.60;;
28074;SDS011;15385;51.088;6.572;2023-05-10T06:48:45;20.30;;;12.63;;
28074;SDS011;15385;51.088;6.572;2023-05-10T06:51:16;21.65;;;12.48;;
28074;SDS011;15385;51.088;6.572;2023-05-10T06:53:47;24.58;;;14.45;;
28074;SDS011;15385;51.088;6.572;2023-05-10T06:56:18;19.10;;;11.80;;
28074;SDS011;15385;51.088;6.572;2023-05-10T06:58:51;23.23;;;13.85;;
28074;SDS011;15385;51.088;6.572;2023-05-10T07:01:21;21.75;;;12.70;;
28074;SDS011;15385;51.088;6.572;2023-05-10T07:03:52;23.98;;;13.40;;
28074;SDS011;15385;51.088;6.572;2023-05-10T07:06:23;24.33;;;14.35;;
28074;SDS011;15385;51.088;6.572;2023-05-10T07:08:53;26.50;;;16.88;;
28074;SDS011;15385;51.088;6.572;2023-05-10T07:11:24;28.00;;;16.15;;
28074;SDS011;15385;51.088;6.572;2023-05-10T07:13:54;23.95;;;14.02;;
28074;SDS011;15385;51.088;6.572;2023-05-10T07:16:25;29.08;;;16.00;;
28074;SDS011;15385;51.088;6.572;2023-05-10T07:18:55;28.10;;;15.65;;
28074;SDS011;15385;51.088;6.572;2023-05-10T07:21:26;24.98;;;14.82;;
28074;SDS011;15385;51.088;6.572;2023-05-10T07:23:58;23.08;;;13.35;;
28074;SDS011;15385;51.088;6.572;2023-05-10T07:26:30;24.98;;;16.00;;
28074;SDS011;15385;51.088;6.572;2023-05-10T07:29:00;29.00;;;16.50;;
28074;SDS011;15385;51.088;6.572;2023-05-10T07:31:31;19.63;;;12.73;;
28074;SDS011;15385;51.088;6.572;2023-05-10T07:34:02;28.48;;;15.93;;
28074;SDS011;15385;51.088;6.572;2023-05-10T07:36:32;22.98;;;14.60;;
28074;SDS011;15385;51.088;6.572;2023-05-10T07:39:03;26.02;;;15.18;;
28074;SDS011;15385;51.088;6.572;2023-05-10T07:41:34;24.67;;;15.43;;
28074;SDS011;15385;51.088;6.572;2023-05-10T07:44:05;27.48;;;17.02;;
28074;SDS011;15385;51.088;6.572;2023-05-10T07:46:36;32.88;;;18.70;;
28074;SDS011;15385;51.088;6.572;2023-05-10T07:49:07;29.48;;;17.10;;
28074;SDS011;15385;51.088;6.572;2023-05-10T07:51:37;29.75;;;17.40;;
28074;SDS011;15385;51.088;6.572;2023-05-10T07:54:08;36.08;;;20.30;;
28074;SDS011;15385;51.088;6.572;2023-05-10T07:56:39;30.23;;;18.20;;
28074;SDS011;15385;51.088;6.572;2023-05-10T07:59:15;33.75;;;16.92;;
28074;SDS011;15385;51.088;6.572;2023-05-10T08:01:47;34.17;;;19.50;;
28074;SDS011;15385;51.088;6.572;2023-05-10T08:04:17;32.58;;;20.27;;
28074;SDS011;15385;51.088;6.572;2023-05-10T08:06:48;40.40;;;22.20;;
28074;SDS011;15385;51.088;6.572;2023-05-10T08:09:18;38.50;;;21.77;;
28074;SDS011;15385;51.088;6.572;2023-05-10T08:11:53;39.58;;;20.65;;
28074;SDS011;15385;51.088;6.572;2023-05-10T08:14:24;38.25;;;22.05;;
28074;SDS011;15385;51.088;6.572;2023-05-10T08:16:54;41.13;;;21.17;;
28074;SDS011;15385;51.088;6.572;2023-05-10T08:19:25;39.30;;;21.75;;
28074;SDS011;15385;51.088;6.572;2023-05-10T08:21:56;40.50;;;23.13;;
28074;SDS011;15385;51.088;6.572;2023-05-10T08:24:27;33.33;;;21.75;;
28074;SDS011;15385;51.088;6.572;2023-05-10T08:26:57;38.15;;;21.83;;
28074;SDS011;15385;51.088;6.572;2023-05-10T08:29:28;40.60;;;22.90;;
28074;SDS011;15385;51.088;6.572;2023-05-10T08:31:58;32.50;;;19.23;;
28074;SDS011;15385;51.088;6.572;2023-05-10T08:34:30;33.30;;;20.73;;
28074;SDS011;15385;51.088;6.572;2023-05-10T08:37:04;36.63;;;21.13;;
28074;SDS011;15385;51.088;6.572;2023-05-10T08:39:44;38.25;;;21.88;;
28074;SDS011;15385;51.088;6.572;2023-05-10T08:42:19;37.53;;;23.52;;
28074;SDS011;15385;51.088;6.572;2023-05-10T08:44:52;36.65;;;22.08;;
28074;SDS011;15385;51.088;6.572;2023-05-10T08:47:23;37.65;;;21.25;;
28074;SDS011;15385;51.088;6.572;2023-05-10T08:49:55;40.10;;;20.38;;
28074;SDS011;15385;51.088;6.572;2023-05-10T08:52:27;41.42;;;23.20;;
28074;SDS011;15385;51.088;6.572;2023-05-10T08:55:00;42.15;;;23.15;;
28074;SDS011;15385;51.088;6.572;2023-05-10T08:57:30;33.85;;;20.25;;
28074;SDS011;15385;51.088;6.572;2023-05-10T09:00:02;38.05;;;21.95;;
28074;SDS011;15385;51.088;6.572;2023-05-10T09:02:33;32.33;;;18.55;;
28074;SDS011;15385;51.088;6.572;2023-05-10T09:05:04;28.55;;;17.23;;
28074;SDS011;15385;51.088;6.572;2023-05-10T09:07:36;29.80;;;17.98;;
28074;SDS011;15385;51.088;6.572;2023-05-10T09:10:06;30.42;;;17.20;;
28074;SDS011;15385;51.088;6.572;2023-05-10T09:12:39;29.98;;;17.83;;
28074;SDS011;15385;51.088;6.572;2023-05-10T09:15:10;29.60;;;17.13;;
28074;SDS011;15385;51.088;6.572;2023-05-10T09:17:42;26.70;;;15.50;;
28074;SDS011;15385;51.088;6.572;2023-05-10T09:20:13;29.08;;;16.60;;
28074;SDS011;15385;51.088;6.572;2023-05-10T09:22:44;27.02;;;17.20;;
28074;SDS011;15385;51.088;6.572;2023-05-10T09:25:15;22.35;;;14.18;;
28074;SDS011;15385;51.088;6.572;2023-05-10T09:27:47;21.95;;;14.13;;
28074;SDS011;15385;51.088;6.572;2023-05-10T09:30:38;20.90;;;14.07;;
28074;SDS011;15385;51.088;6.572;2023-05-10T09:33:09;24.23;;;14.15;;
28074;SDS011;15385;51.088;6.572;2023-05-10T09:35:40;21.30;;;15.13;;
28074;SDS011;15385;51.088;6.572;2023-05-10T09:38:12;21.58;;;14.85;;
28074;SDS011;15385;51.088;6.572;2023-05-10T09:40:42;25.50;;;16.05;;
28074;SDS011;15385;51.088;6.572;2023-05-10T09:43:24;27.70;;;16.08;;
28074;SDS011;15385;51.088;6.572;2023-05-10T09:45:55;22.02;;;14.93;;
28074;SDS011;15385;51.088;6.572;2023-05-10T09:48:25;27.27;;;15.52;;
28074;SDS011;15385;51.088;6.572;2023-05-10T09:50:56;20.33;;;14.25;;
28074;SDS011;15385;51.088;6.572;2023-05-10T09:53:27;20.92;;;13.52;;
28074;SDS011;15385;51.088;6.572;2023-05-10T09:55:58;22.88;;;14.15;;
28074;SDS011;15385;51.088;6.572;2023-05-10T09:58:28;23.55;;;14.13;;
28074;SDS011;15385;51.088;6.572;2023-05-10T10:00:59;19.23;;;13.00;;
28074;SDS011;15385;51.088;6.572;2023-05-10T10:03:30;19.98;;;12.80;;
28074;SDS011;15385;51.088;6.572;2023-05-10T10:06:01;20.60;;;11.30;;
28074;SDS011;15385;51.088;6.572;2023-05-10T10:08:31;17.63;;;10.85;;
28074;SDS011;15385;51.088;6.572;2023-05-10T10:11:02;14.88;;;9.65;;
28074;SDS011;15385;51.088;6.572;2023-05-10T10:13:33;15.13;;;9.90;;
28074;SDS011;15385;51.088;6.572;2023-05-10T10:16:03;16.55;;;9.77;;
28074;SDS011;15385;51.088;6.572;2023-05-10T10:18:35;18.38;;;10.55;;
28074;SDS011;15385;51.088;6.572;2023-05-10T10:21:08;18.50;;;11.25;;
28074;SDS011;15385;51.088;6.572;2023-05-10T10:23:39;16.13;;;10.10;;
28074;SDS011;15385;51.088;6.572;2023-05-10T10:26:10;17.05;;;10.18;;
28074;SDS011;15385;51.088;6.572;2023-05-10T10:28:47;16.20;;;10.30;;
28074;SDS011;15385;51.088;6.572;2023-05-10T10:34:26;16.88;;;10.68;;
28074;SDS011;15385;51.088;6.572;2023-05-10T10:36:58;17.20;;;11.68;;
28074;SDS011;15385;51.088;6.572;2023-05-10T10:39:34;16.25;;;10.35;;
28074;SDS011;15385;51.088;6.572;2023-05-10T10:42:06;17.63;;;10.93;;
28074;SDS011;15385;51.088;6.572;2023-05-10T10:44:37;15.63;;;9.95;;
28074;SDS011;15385;51.088;6.572;2023-05-10T10:50:02;16.25;;;10.57;;
28074;SDS011;15385;51.088;6.572;2023-05-10T10:57:55;14.65;;;9.85;;
28074;SDS011;15385;51.088;6.572;2023-05-10T11:00:37;16.15;;;10.85;;
28074;SDS011;15385;51.088;6.572;2023-05-10T11:03:11;14.00;;;9.48;;
28074;SDS011;15385;51.088;6.572;2023-05-10T11:05:48;14.30;;;9.13;;
28074;SDS011;15385;51.088;6.572;2023-05-10T11:08:30;13.48;;;9.00;;
28074;SDS011;15385;51.088;6.572;2023-05-10T11:11:03;11.85;;;8.30;;
28074;SDS011;15385;51.088;6.572;2023-05-10T11:13:45;15.35;;;8.55;;
28074;SDS011;15385;51.088;6.572;2023-05-10T11:16:19;10.75;;;8.50;;
28074;SDS011;15385;51.088;6.572;2023-05-10T11:21:31;12.35;;;8.43;;
28074;SDS011;15385;51.088;6.572;2023-05-10T11:24:08;12.07;;;8.57;;
28074;SDS011;15385;51.088;6.572;2023-05-10T11:26:43;12.17;;;7.97;;
28074;SDS011;15385;51.088;6.572;2023-05-10T11:29:15;11.80;;;7.82;;
28074;SDS011;15385;51.088;6.572;2023-05-10T11:31:46;11.05;;;7.88;;
28074;SDS011;15385;51.088;6.572;2023-05-10T11:34:25;10.20;;;7.30;;
28074;SDS011;15385;51.088;6.572;2023-05-10T11:37:00;10.05;;;7.78;;
28074;SDS011;15385;51.088;6.572;2023-05-10T11:39:31;8.80;;;6.55;;
28074;SDS011;15385;51.088;6.572;2023-05-10T11:42:03;8.98;;;7.40;;
28074;SDS011;15385;51.088;6.572;2023-05-10T11:44:34;8.88;;;7.57;;
28074;SDS011;15385;51.088;6.572;2023-05-10T11:47:05;10.25;;;7.93;;
28074;SDS011;15385;51.088;6.572;2023-05-10T11:49:35;9.50;;;7.38;;
28074;SDS011;15385;51.088;6.572;2023-05-10T11:52:06;12.48;;;7.97;;
28074;SDS011;15385;51.088;6.572;2023-05-10T11:54:37;9.82;;;7.13;;
28074;SDS011;15385;51.088;6.572;2023-05-10T11:57:25;9.27;;;6.90;;
28074;SDS011;15385;51.088;6.572;2023-05-10T11:59:58;9.68;;;7.85;;
28074;SDS011;15385;51.088;6.572;2023-05-10T12:02:29;9.00;;;7.45;;
28074;SDS011;15385;51.088;6.572;2023-05-10T12:05:00;6.78;;;6.03;;
28074;SDS011;15385;51.088;6.572;2023-05-10T12:07:32;8.02;;;6.07;;
28074;SDS011;15385;51.088;6.572;2023-05-10T12:12:38;6.53;;;5.00;;
28074;SDS011;15385;51.088;6.572;2023-05-10T12:15:20;6.28;;;3.88;;
28074;SDS011;15385;51.088;6.572;2023-05-10T12:17:51;6.88;;;4.50;;
28074;SDS011;15385;51.088;6.572;2023-05-10T12:20:23;6.53;;;4.50;;
28074;SDS011;15385;51.088;6.572;2023-05-10T12:22:55;6.50;;;4.28;;
28074;SDS011;15385;51.088;6.572;2023-05-10T12:25:31;6.38;;;4.65;;
28074;SDS011;15385;51.088;6.572;2023-05-10T12:28:04;6.63;;;3.80;;
28074;SDS011;15385;51.088;6.572;2023-05-10T12:30:37;6.40;;;3.88;;
28074;SDS011;15385;51.088;6.572;2023-05-10T12:33:09;6.68;;;4.00;;
28074;SDS011;15385;51.088;6.572;2023-05-10T12:35:48;6.68;;;4.05;;
28074;SDS011;15385;51.088;6.572;2023-05-10T12:38:31;4.55;;;3.53;;
28074;SDS011;15385;51.088;6.572;2023-05-10T12:41:07;5.22;;;3.83;;
28074;SDS011;15385;51.088;6.572;2023-05-10T12:43:39;6.60;;;3.85;;
28074;SDS011;15385;51.088;6.572;2023-05-10T12:46:14;6.50;;;4.32;;
28074;SDS011;15385;51.088;6.572;2023-05-10T12:48:46;5.25;;;4.20;;
28074;SDS011;15385;51.088;6.572;2023-05-10T12:51:19;5.05;;;4.13;;
28074;SDS011;15385;51.088;6.572;2023-05-10T12:53:51;6.55;;;4.45;;
28074;SDS011;15385;51.088;6.572;2023-05-10T12:56:22;6.30;;;4.53;;
28074;SDS011;15385;51.088;6.572;2023-05-10T12:58:53;6.88;;;4.57;;
28074;SDS011;15385;51.088;6.572;2023-05-10T13:01:23;6.43;;;4.00;;
28074;SDS011;15385;51.088;6.572;2023-05-10T13:03:54;5.80;;;4.30;;
28074;SDS011;15385;51.088;6.572;2023-05-10T13:06:25;6.25;;;4.03;;
28074;SDS011;15385;51.088;6.572;2023-05-10T13:08:55;9.57;;;4.72;;
28074;SDS011;15385;51.088;6.572;2023-05-10T13:11:27;7.10;;;4.20;;
28074;SDS011;15385;51.088;6.572;2023-05-10T13:13:58;6.07;;;3.88;;
28074;SDS011;15385;51.088;6.572;2023-05-10T13:16:28;5.68;;;4.30;;
28074;SDS011;15385;51.088;6.572;2023-05-10T13:18:59;6.75;;;4.38;;
28074;SDS011;15385;51.088;6.572;2023-05-10T13:21:30;7.47;;;4.00;;
28074;SDS011;15385;51.088;6.572;2023-05-10T13:24:00;5.70;;;4.15;;
28074;SDS011;15385;51.088;6.572;2023-05-10T13:26:31;7.72;;;4.57;;
28074;SDS011;15385;51.088;6.572;2023-05-10T13:29:02;4.97;;;4.18;;
28074;SDS011;15385;51.088;6.572;2023-05-10T13:31:33;4.68;;;3.72;;
28074;SDS011;15385;51.088;6.572;2023-05-10T13:34:04;5.25;;;3.50;;
28074;SDS011;15385;51.088;6.572;2023-05-10T13:36:35;5.40;;;4.18;;
28074;SDS011;15385;51.088;6.572;2023-05-10T13:39:06;4.88;;;3.90;;
28074;SDS011;15385;51.088;6.572;2023-05-10T13:41:37;4.32;;;3.55;;
28074;SDS011;15385;51.088;6.572;2023-05-10T13:44:07;5.63;;;3.70;;
28074;SDS011;15385;51.088;6.572;2023-05-10T13:46:38;4.22;;;3.17;;
28074;SDS011;15385;51.088;6.572;2023-05-10T13:49:09;5.78;;;3.45;;
28074;SDS011;15385;51.088;6.572;2023-05-10T13:51:39;2.97;;;2.60;;
28074;SDS011;15385;51.088;6.572;2023-05-10T13:54:10;4.63;;;3.70;;
28074;SDS011;15385;51.088;6.572;2023-05-10T13:56:44;4.35;;;3.20;;
28074;SDS011;15385;51.088;6.572;2023-05-10T13:59:15;3.67;;;2.78;;
28074;SDS011;15385;51.088;6.572;2023-05-10T14:01:45;5.55;;;3.25;;
28074;SDS011;15385;51.088;6.572;2023-05-10T14:04:16;4.57;;;3.08;;
28074;SDS011;15385;51.088;6.572;2023-05-10T14:06:47;3.95;;;2.83;;
28074;SDS011;15385;51.088;6.572;2023-05-10T14:09:18;3.60;;;2.85;;
28074;SDS011;15385;51.088;6.572;2023-05-10T14:11:48;5.82;;;3.25;;
28074;SDS011;15385;51.088;6.572;2023-05-10T14:14:19;6.25;;;3.10;;
28074;SDS011;15385;51.088;6.572;2023-05-10T14:16:50;6.57;;;3.55;;
28074;SDS011;15385;51.088;6.572;2023-05-10T14:19:20;4.38;;;3.00;;
28074;SDS011;15385;51.088;6.572;2023-05-10T14:21:51;4.30;;;3.72;;
28074;SDS011;15385;51.088;6.572;2023-05-10T14:24:21;5.60;;;4.30;;
28074;SDS011;15385;51.088;6.572;2023-05-10T14:26:52;6.88;;;4.40;;
28074;SDS011;15385;51.088;6.572;2023-05-10T14:29:23;6.68;;;3.92;;
28074;SDS011;15385;51.088;6.572;2023-05-10T14:31:54;5.68;;;4.50;;
28074;SDS011;15385;51.088;6.572;2023-05-10T14:34:25;4.50;;;3.47;;
28074;SDS011;15385;51.088;6.572;2023-05-10T14:36:56;4.28;;;3.88;;
28074;SDS011;15385;51.088;6.572;2023-05-10T14:39:26;6.80;;;4.13;;
28074;SDS011;15385;51.088;6.572;2023-05-10T14:41:59;4.85;;;3.67;;
28074;SDS011;15385;51.088;6.572;2023-05-10T14:44:30;4.80;;;3.38;;
28074;SDS011;15385;51.088;6.572;2023-05-10T14:47:01;5.15;;;3.10;;
28074;SDS011;15385;51.088;6.572;2023-05-10T14:49:32;6.53;;;3.90;;
28074;SDS011;15385;51.088;6.572;2023-05-10T14:52:02;5.43;;;3.72;;
28074;SDS011;15385;51.088;6.572;2023-05-10T14:54:33;6.55;;;4.85;;
28074;SDS011;15385;51.088;6.572;2023-05-10T14:57:04;5.78;;;4.65;;
28074;SDS011;15385;51.088;6.572;2023-05-10T14:59:34;6.10;;;4.60;;
28074;SDS011;15385;51.088;6.572;2023-05-10T15:02:05;7.35;;;4.80;;
28074;SDS011;15385;51.088;6.572;2023-05-10T15:04:38;6.53;;;4.10;;
28074;SDS011;15385;51.088;6.572;2023-05-10T15:07:08;4.95;;;3.80;;
28074;SDS011;15385;51.088;6.572;2023-05-10T15:09:39;6.20;;;3.90;;
28074;SDS011;15385;51.088;6.572;2023-05-10T15:12:10;5.53;;;3.80;;
28074;SDS011;15385;51.088;6.572;2023-05-10T15:14:40;4.47;;;3.30;;
28074;SDS011;15385;51.088;6.572;2023-05-10T15:17:11;5.25;;;3.28;;
28074;SDS011;15385;51.088;6.572;2023-05-10T15:19:42;5.00;;;3.30;;
28074;SDS011;15385;51.088;6.572;2023-05-10T15:22:12;5.07;;;3.30;;
28074;SDS011;15385;51.088;6.572;2023-05-10T15:24:43;3.92;;;3.17;;
28074;SDS011;15385;51.088;6.572;2023-05-10T15:27:14;4.57;;;3.15;;
28074;SDS011;15385;51.088;6.572;2023-05-10T15:29:44;4.32;;;2.97;;
28074;SDS011;15385;51.088;6.572;2023-05-10T15:32:15;4.88;;;3.50;;
28074;SDS011;15385;51.088;6.572;2023-05-10T15:34:46;4.15;;;2.75;;
28074;SDS011;15385;51.088;6.572;2023-05-10T15:37:16;5.55;;;2.95;;